Cascade, Washington
Current Conditions -  °F | °C
As of 7:53 PM on Wednesday 22 Oct 2014 (Local Time) from KRNT Reporting Station
Overcast Overcast  
Wind Chill: 55°   Ceiling: 4900
Heat Index: 55°   Visibility: 10mi
Dew Point: 53°   Wind: 5mph
Humidity: 93%   Direction: 110°ESE
Pressure: 29.57"   Gusts: NA
Location:  47.4414°N, 122.121°W
Report Text: KRNT 230253Z 11004KT 10SM BKN049 OVC060 13/12 A2957 RMK AO2 RAE53 SLP018 P0000 60009 T01280117 55014
Loading
Personal Weather Stations






























Interactive Weather Map
Tropical Storm Tracking
New forecast layout! Learn more

10-Day Weather Forecast

Advertisements
Track Severe Weather on mobile